sensor_id;sensor_type;location;lat;lon;timestamp;P1;durP1;ratioP1;P2;durP2;ratioP2
68938;SDS011;59064;45.294;11.816;2022-09-29T00:01:57;9.50;;;5.40;;
68938;SDS011;59064;45.294;11.816;2022-09-29T00:04:23;9.40;;;6.20;;
68938;SDS011;59064;45.294;11.816;2022-09-29T00:06:48;9.70;;;5.00;;
68938;SDS011;59064;45.294;11.816;2022-09-29T00:09:14;7.80;;;4.60;;
68938;SDS011;59064;45.294;11.816;2022-09-29T00:11:40;8.00;;;5.40;;
68938;SDS011;59064;45.294;11.816;2022-09-29T00:14:05;8.00;;;5.30;;
68938;SDS011;59064;45.294;11.816;2022-09-29T00:16:31;8.10;;;5.10;;
68938;SDS011;59064;45.294;11.816;2022-09-29T00:18:57;9.60;;;5.20;;
68938;SDS011;59064;45.294;11.816;2022-09-29T00:21:23;8.10;;;4.80;;
68938;SDS011;59064;45.294;11.816;2022-09-29T00:23:49;7.00;;;4.40;;
68938;SDS011;59064;45.294;11.816;2022-09-29T00:26:17;8.60;;;4.70;;
68938;SDS011;59064;45.294;11.816;2022-09-29T00:28:56;8.70;;;5.00;;
68938;SDS011;59064;45.294;11.816;2022-09-29T00:31:25;7.30;;;4.90;;
68938;SDS011;59064;45.294;11.816;2022-09-29T00:33:52;8.80;;;4.60;;
68938;SDS011;59064;45.294;11.816;2022-09-29T00:36:19;9.50;;;4.60;;
68938;SDS011;59064;45.294;11.816;2022-09-29T00:38:46;7.50;;;4.30;;
68938;SDS011;59064;45.294;11.816;2022-09-29T00:41:25;8.90;;;4.60;;
68938;SDS011;59064;45.294;11.816;2022-09-29T00:43:58;8.00;;;4.80;;
68938;SDS011;59064;45.294;11.816;2022-09-29T00:52:31;7.10;;;4.50;;
68938;SDS011;59064;45.294;11.816;2022-09-29T00:55:16;6.80;;;4.60;;
68938;SDS011;59064;45.294;11.816;2022-09-29T00:57:55;8.50;;;4.10;;
68938;SDS011;59064;45.294;11.816;2022-09-29T01:00:22;7.20;;;4.40;;
68938;SDS011;59064;45.294;11.816;2022-09-29T01:02:51;8.90;;;4.50;;
68938;SDS011;59064;45.294;11.816;2022-09-29T01:05:27;7.00;;;4.80;;
68938;SDS011;59064;45.294;11.816;2022-09-29T01:08:01;8.00;;;4.80;;
68938;SDS011;59064;45.294;11.816;2022-09-29T01:10:33;8.30;;;4.60;;
68938;SDS011;59064;45.294;11.816;2022-09-29T01:13:00;8.50;;;5.20;;
68938;SDS011;59064;45.294;11.816;2022-09-29T01:15:26;9.00;;;5.60;;
68938;SDS011;59064;45.294;11.816;2022-09-29T01:17:54;8.60;;;5.30;;
68938;SDS011;59064;45.294;11.816;2022-09-29T01:20:20;8.90;;;5.10;;
68938;SDS011;59064;45.294;11.816;2022-09-29T01:32:03;9.90;;;5.60;;
68938;SDS011;59064;45.294;11.816;2022-09-29T01:38:00;13.60;;;6.60;;
68938;SDS011;59064;45.294;11.816;2022-09-29T01:43:43;9.20;;;6.40;;
68938;SDS011;59064;45.294;11.816;2022-09-29T01:46:57;10.50;;;5.50;;
68938;SDS011;59064;45.294;11.816;2022-09-29T01:49:30;11.70;;;5.90;;
68938;SDS011;59064;45.294;11.816;2022-09-29T01:52:12;8.50;;;5.90;;
68938;SDS011;59064;45.294;11.816;2022-09-29T01:54:53;9.00;;;5.70;;
68938;SDS011;59064;45.294;11.816;2022-09-29T02:00:38;10.00;;;6.00;;
68938;SDS011;59064;45.294;11.816;2022-09-29T02:03:27;9.10;;;6.10;;
68938;SDS011;59064;45.294;11.816;2022-09-29T02:06:03;10.30;;;6.20;;
68938;SDS011;59064;45.294;11.816;2022-09-29T02:08:55;13.00;;;7.10;;
68938;SDS011;59064;45.294;11.816;2022-09-29T02:11:24;10.20;;;6.20;;
68938;SDS011;59064;45.294;11.816;2022-09-29T02:14:11;11.70;;;7.20;;
68938;SDS011;59064;45.294;11.816;2022-09-29T02:16:54;14.60;;;8.30;;
68938;SDS011;59064;45.294;11.816;2022-09-29T02:19:46;12.90;;;8.10;;
68938;SDS011;59064;45.294;11.816;2022-09-29T02:22:15;13.60;;;9.50;;
68938;SDS011;59064;45.294;11.816;2022-09-29T02:24:42;12.90;;;9.40;;
68938;SDS011;59064;45.294;11.816;2022-09-29T02:27:09;14.10;;;9.70;;
68938;SDS011;59064;45.294;11.816;2022-09-29T02:29:36;16.30;;;10.50;;
68938;SDS011;59064;45.294;11.816;2022-09-29T02:32:03;15.10;;;9.60;;
68938;SDS011;59064;45.294;11.816;2022-09-29T02:34:33;13.90;;;9.90;;
68938;SDS011;59064;45.294;11.816;2022-09-29T02:40:28;12.30;;;8.10;;
68938;SDS011;59064;45.294;11.816;2022-09-29T02:48:59;12.40;;;6.60;;
68938;SDS011;59064;45.294;11.816;2022-09-29T02:51:38;13.60;;;7.20;;
68938;SDS011;59064;45.294;11.816;2022-09-29T02:54:20;14.60;;;7.20;;
68938;SDS011;59064;45.294;11.816;2022-09-29T02:59:25;9.80;;;6.80;;
68938;SDS011;59064;45.294;11.816;2022-09-29T03:01:56;11.70;;;7.00;;
68938;SDS011;59064;45.294;11.816;2022-09-29T03:04:24;12.40;;;6.80;;
68938;SDS011;59064;45.294;11.816;2022-09-29T03:06:51;14.60;;;6.80;;
68938;SDS011;59064;45.294;11.816;2022-09-29T03:09:17;12.70;;;6.50;;
68938;SDS011;59064;45.294;11.816;2022-09-29T03:11:43;10.50;;;6.30;;
68938;SDS011;59064;45.294;11.816;2022-09-29T03:14:09;9.40;;;5.90;;
68938;SDS011;59064;45.294;11.816;2022-09-29T03:16:35;11.40;;;6.40;;
68938;SDS011;59064;45.294;11.816;2022-09-29T03:19:02;10.50;;;6.70;;
68938;SDS011;59064;45.294;11.816;2022-09-29T03:21:30;14.10;;;6.80;;
68938;SDS011;59064;45.294;11.816;2022-09-29T03:23:57;13.80;;;6.40;;
68938;SDS011;59064;45.294;11.816;2022-09-29T03:26:22;12.70;;;7.00;;
68938;SDS011;59064;45.294;11.816;2022-09-29T03:28:50;11.70;;;6.80;;
68938;SDS011;59064;45.294;11.816;2022-09-29T03:31:16;10.70;;;6.10;;
68938;SDS011;59064;45.294;11.816;2022-09-29T03:33:42;9.90;;;5.60;;
68938;SDS011;59064;45.294;11.816;2022-09-29T03:36:08;10.90;;;6.10;;
68938;SDS011;59064;45.294;11.816;2022-09-29T03:38:36;10.60;;;6.20;;
68938;SDS011;59064;45.294;11.816;2022-09-29T03:41:03;9.90;;;6.00;;
68938;SDS011;59064;45.294;11.816;2022-09-29T03:43:29;10.20;;;5.50;;
68938;SDS011;59064;45.294;11.816;2022-09-29T03:45:55;11.60;;;5.80;;
68938;SDS011;59064;45.294;11.816;2022-09-29T03:48:21;9.40;;;5.90;;
68938;SDS011;59064;45.294;11.816;2022-09-29T03:50:49;9.80;;;4.40;;
68938;SDS011;59064;45.294;11.816;2022-09-29T03:53:16;10.00;;;5.20;;
68938;SDS011;59064;45.294;11.816;2022-09-29T03:55:46;10.90;;;5.60;;
68938;SDS011;59064;45.294;11.816;2022-09-29T03:58:13;13.70;;;5.70;;
68938;SDS011;59064;45.294;11.816;2022-09-29T04:00:39;8.10;;;4.70;;
68938;SDS011;59064;45.294;11.816;2022-09-29T04:03:05;7.20;;;4.80;;
68938;SDS011;59064;45.294;11.816;2022-09-29T04:05:31;11.70;;;5.00;;
68938;SDS011;59064;45.294;11.816;2022-09-29T04:07:58;10.60;;;5.00;;
68938;SDS011;59064;45.294;11.816;2022-09-29T04:10:24;11.70;;;5.30;;
68938;SDS011;59064;45.294;11.816;2022-09-29T04:12:50;9.40;;;5.50;;
68938;SDS011;59064;45.294;11.816;2022-09-29T04:15:15;12.40;;;5.50;;
68938;SDS011;59064;45.294;11.816;2022-09-29T04:17:41;9.30;;;5.10;;
68938;SDS011;59064;45.294;11.816;2022-09-29T04:20:07;9.90;;;5.50;;
68938;SDS011;59064;45.294;11.816;2022-09-29T04:22:33;9.50;;;5.30;;
68938;SDS011;59064;45.294;11.816;2022-09-29T04:24:58;10.90;;;5.80;;
68938;SDS011;59064;45.294;11.816;2022-09-29T04:27:24;11.40;;;5.50;;
68938;SDS011;59064;45.294;11.816;2022-09-29T04:29:50;9.00;;;5.60;;
68938;SDS011;59064;45.294;11.816;2022-09-29T04:32:15;10.50;;;5.50;;
68938;SDS011;59064;45.294;11.816;2022-09-29T04:34:41;10.90;;;5.40;;
68938;SDS011;59064;45.294;11.816;2022-09-29T04:37:07;12.90;;;5.70;;
68938;SDS011;59064;45.294;11.816;2022-09-29T04:39:36;10.50;;;5.90;;
68938;SDS011;59064;45.294;11.816;2022-09-29T04:42:02;10.80;;;5.80;;
68938;SDS011;59064;45.294;11.816;2022-09-29T04:44:28;10.50;;;5.90;;
68938;SDS011;59064;45.294;11.816;2022-09-29T04:46:53;11.10;;;6.30;;
68938;SDS011;59064;45.294;11.816;2022-09-29T04:49:19;8.80;;;5.60;;
68938;SDS011;59064;45.294;11.816;2022-09-29T04:51:45;11.30;;;6.10;;
68938;SDS011;59064;45.294;11.816;2022-09-29T04:54:11;10.60;;;5.90;;
68938;SDS011;59064;45.294;11.816;2022-09-29T04:56:37;12.10;;;5.70;;
68938;SDS011;59064;45.294;11.816;2022-09-29T04:59:03;10.10;;;5.50;;
68938;SDS011;59064;45.294;11.816;2022-09-29T05:01:28;12.30;;;6.00;;
68938;SDS011;59064;45.294;11.816;2022-09-29T05:03:54;10.10;;;5.70;;
68938;SDS011;59064;45.294;11.816;2022-09-29T05:06:20;11.00;;;6.20;;
68938;SDS011;59064;45.294;11.816;2022-09-29T05:08:46;11.80;;;6.20;;
68938;SDS011;59064;45.294;11.816;2022-09-29T05:11:12;10.60;;;5.00;;
68938;SDS011;59064;45.294;11.816;2022-09-29T05:13:38;7.80;;;4.90;;
68938;SDS011;59064;45.294;11.816;2022-09-29T05:16:04;10.90;;;5.20;;
68938;SDS011;59064;45.294;11.816;2022-09-29T05:18:31;9.00;;;5.20;;
68938;SDS011;59064;45.294;11.816;2022-09-29T05:21:04;6.00;;;3.30;;
68938;SDS011;59064;45.294;11.816;2022-09-29T05:23:31;9.60;;;4.40;;
68938;SDS011;59064;45.294;11.816;2022-09-29T05:26:05;10.90;;;4.60;;
68938;SDS011;59064;45.294;11.816;2022-09-29T05:28:33;9.40;;;4.00;;
68938;SDS011;59064;45.294;11.816;2022-09-29T05:31:01;11.40;;;4.10;;
68938;SDS011;59064;45.294;11.816;2022-09-29T05:33:31;8.40;;;3.70;;
68938;SDS011;59064;45.294;11.816;2022-09-29T05:35:57;8.10;;;4.00;;
68938;SDS011;59064;45.294;11.816;2022-09-29T05:38:23;8.00;;;3.60;;
68938;SDS011;59064;45.294;11.816;2022-09-29T05:40:50;7.90;;;3.50;;
68938;SDS011;59064;45.294;11.816;2022-09-29T05:43:17;7.50;;;3.30;;
68938;SDS011;59064;45.294;11.816;2022-09-29T05:45:43;7.80;;;3.40;;
68938;SDS011;59064;45.294;11.816;2022-09-29T05:48:09;6.20;;;3.00;;
68938;SDS011;59064;45.294;11.816;2022-09-29T05:50:35;7.20;;;3.30;;
68938;SDS011;59064;45.294;11.816;2022-09-29T05:53:08;8.80;;;3.20;;
68938;SDS011;59064;45.294;11.816;2022-09-29T05:55:35;15.70;;;4.10;;
68938;SDS011;59064;45.294;11.816;2022-09-29T05:58:02;14.50;;;7.40;;
68938;SDS011;59064;45.294;11.816;2022-09-29T06:00:28;11.80;;;5.80;;
68938;SDS011;59064;45.294;11.816;2022-09-29T06:02:58;10.60;;;4.70;;
68938;SDS011;59064;45.294;11.816;2022-09-29T06:05:25;8.40;;;3.10;;
68938;SDS011;59064;45.294;11.816;2022-09-29T06:07:51;7.60;;;3.30;;
68938;SDS011;59064;45.294;11.816;2022-09-29T06:10:18;14.00;;;4.00;;
68938;SDS011;59064;45.294;11.816;2022-09-29T06:12:44;10.30;;;3.70;;
68938;SDS011;59064;45.294;11.816;2022-09-29T06:15:10;9.10;;;4.00;;
68938;SDS011;59064;45.294;11.816;2022-09-29T06:17:37;8.20;;;3.90;;
68938;SDS011;59064;45.294;11.816;2022-09-29T06:20:03;11.00;;;4.20;;
68938;SDS011;59064;45.294;11.816;2022-09-29T06:22:31;7.30;;;3.70;;
68938;SDS011;59064;45.294;11.816;2022-09-29T06:24:57;8.60;;;3.60;;
68938;SDS011;59064;45.294;11.816;2022-09-29T06:27:23;6.70;;;3.20;;
68938;SDS011;59064;45.294;11.816;2022-09-29T06:29:49;6.30;;;2.90;;
68938;SDS011;59064;45.294;11.816;2022-09-29T06:32:14;6.90;;;2.40;;
68938;SDS011;59064;45.294;11.816;2022-09-29T06:34:40;7.10;;;2.70;;
68938;SDS011;59064;45.294;11.816;2022-09-29T06:37:25;6.30;;;2.70;;
68938;SDS011;59064;45.294;11.816;2022-09-29T06:40:05;6.70;;;2.70;;
68938;SDS011;59064;45.294;11.816;2022-09-29T06:42:33;5.90;;;2.50;;
68938;SDS011;59064;45.294;11.816;2022-09-29T06:44:59;5.70;;;2.70;;
68938;SDS011;59064;45.294;11.816;2022-09-29T06:47:25;6.60;;;2.50;;
68938;SDS011;59064;45.294;11.816;2022-09-29T06:49:50;7.90;;;2.70;;
68938;SDS011;59064;45.294;11.816;2022-09-29T06:52:16;5.30;;;2.90;;
68938;SDS011;59064;45.294;11.816;2022-09-29T06:54:42;6.20;;;2.70;;
68938;SDS011;59064;45.294;11.816;2022-09-29T06:57:08;7.70;;;2.90;;
68938;SDS011;59064;45.294;11.816;2022-09-29T06:59:34;7.40;;;2.60;;
68938;SDS011;59064;45.294;11.816;2022-09-29T07:02:00;6.00;;;3.10;;
68938;SDS011;59064;45.294;11.816;2022-09-29T07:04:26;7.70;;;3.10;;
68938;SDS011;59064;45.294;11.816;2022-09-29T07:06:52;5.90;;;2.50;;
68938;SDS011;59064;45.294;11.816;2022-09-29T07:09:18;6.30;;;2.60;;
68938;SDS011;59064;45.294;11.816;2022-09-29T07:11:47;6.00;;;2.90;;
68938;SDS011;59064;45.294;11.816;2022-09-29T07:14:16;6.50;;;3.00;;
68938;SDS011;59064;45.294;11.816;2022-09-29T07:16:43;7.20;;;2.90;;
68938;SDS011;59064;45.294;11.816;2022-09-29T07:19:09;6.10;;;3.00;;
68938;SDS011;59064;45.294;11.816;2022-09-29T07:21:34;6.60;;;2.70;;
68938;SDS011;59064;45.294;11.816;2022-09-29T07:24:01;6.70;;;3.00;;
68938;SDS011;59064;45.294;11.816;2022-09-29T07:26:27;6.30;;;2.60;;
68938;SDS011;59064;45.294;11.816;2022-09-29T07:28:53;6.90;;;2.60;;
68938;SDS011;59064;45.294;11.816;2022-09-29T07:31:20;7.30;;;2.60;;
68938;SDS011;59064;45.294;11.816;2022-09-29T07:33:48;5.50;;;2.80;;
68938;SDS011;59064;45.294;11.816;2022-09-29T07:36:16;10.70;;;2.50;;
68938;SDS011;59064;45.294;11.816;2022-09-29T07:38:50;6.20;;;2.30;;
68938;SDS011;59064;45.294;11.816;2022-09-29T07:41:18;8.80;;;2.40;;
68938;SDS011;59064;45.294;11.816;2022-09-29T07:43:45;6.80;;;2.20;;
68938;SDS011;59064;45.294;11.816;2022-09-29T07:46:11;8.50;;;2.20;;
68938;SDS011;59064;45.294;11.816;2022-09-29T07:48:37;4.80;;;2.30;;
68938;SDS011;59064;45.294;11.816;2022-09-29T07:51:07;6.80;;;2.40;;
68938;SDS011;59064;45.294;11.816;2022-09-29T07:53:35;6.20;;;2.10;;
68938;SDS011;59064;45.294;11.816;2022-09-29T07:56:16;8.80;;;3.20;;
68938;SDS011;59064;45.294;11.816;2022-09-29T07:59:03;6.30;;;2.70;;
68938;SDS011;59064;45.294;11.816;2022-09-29T08:01:29;4.90;;;2.10;;
68938;SDS011;59064;45.294;11.816;2022-09-29T08:03:56;8.10;;;2.90;;
68938;SDS011;59064;45.294;11.816;2022-09-29T08:06:23;9.60;;;2.60;;
68938;SDS011;59064;45.294;11.816;2022-09-29T08:08:50;4.30;;;2.00;;
68938;SDS011;59064;45.294;11.816;2022-09-29T08:11:18;8.30;;;2.60;;
68938;SDS011;59064;45.294;11.816;2022-09-29T08:13:46;6.50;;;2.50;;
68938;SDS011;59064;45.294;11.816;2022-09-29T08:16:14;6.40;;;3.00;;
68938;SDS011;59064;45.294;11.816;2022-09-29T08:18:41;6.80;;;2.50;;
68938;SDS011;59064;45.294;11.816;2022-09-29T08:21:07;7.30;;;2.60;;
68938;SDS011;59064;45.294;11.816;2022-09-29T08:23:39;7.10;;;2.70;;
68938;SDS011;59064;45.294;11.816;2022-09-29T08:26:09;7.60;;;2.80;;
68938;SDS011;59064;45.294;11.816;2022-09-29T08:28:37;6.50;;;2.50;;
68938;SDS011;59064;45.294;11.816;2022-09-29T08:33:38;5.70;;;2.30;;
68938;SDS011;59064;45.294;11.816;2022-09-29T08:36:04;7.00;;;2.90;;
68938;SDS011;59064;45.294;11.816;2022-09-29T08:38:40;9.20;;;3.20;;
68938;SDS011;59064;45.294;11.816;2022-09-29T08:47:01;6.40;;;2.80;;
68938;SDS011;59064;45.294;11.816;2022-09-29T08:49:38;5.00;;;2.60;;
68938;SDS011;59064;45.294;11.816;2022-09-29T08:52:12;6.00;;;2.10;;
68938;SDS011;59064;45.294;11.816;2022-09-29T08:54:43;8.50;;;2.40;;
68938;SDS011;59064;45.294;11.816;2022-09-29T08:57:13;4.70;;;2.10;;
68938;SDS011;59064;45.294;11.816;2022-09-29T08:59:51;7.10;;;2.30;;
68938;SDS011;59064;45.294;11.816;2022-09-29T09:05:31;5.40;;;1.60;;
68938;SDS011;59064;45.294;11.816;2022-09-29T09:10:50;5.10;;;1.90;;
68938;SDS011;59064;45.294;11.816;2022-09-29T09:14:11;6.20;;;1.50;;
68938;SDS011;59064;45.294;11.816;2022-09-29T09:16:42;6.70;;;2.00;;
68938;SDS011;59064;45.294;11.816;2022-09-29T09:19:35;6.50;;;2.00;;
68938;SDS011;59064;45.294;11.816;2022-09-29T09:22:23;5.00;;;1.50;;
68938;SDS011;59064;45.294;11.816;2022-09-29T09:24:56;4.60;;;1.70;;
68938;SDS011;59064;45.294;11.816;2022-09-29T09:27:32;8.00;;;2.50;;
68938;SDS011;59064;45.294;11.816;2022-09-29T09:30:10;6.60;;;2.40;;
68938;SDS011;59064;45.294;11.816;2022-09-29T09:32:45;7.50;;;2.40;;
68938;SDS011;59064;45.294;11.816;2022-09-29T09:38:14;7.20;;;2.10;;
68938;SDS011;59064;45.294;11.816;2022-09-29T09:40:47;5.90;;;1.80;;
68938;SDS011;59064;45.294;11.816;2022-09-29T09:43:18;6.20;;;2.00;;
68938;SDS011;59064;45.294;11.816;2022-09-29T09:49:29;6.90;;;2.20;;
68938;SDS011;59064;45.294;11.816;2022-09-29T09:55:14;9.20;;;2.70;;
68938;SDS011;59064;45.294;11.816;2022-09-29T10:00:30;4.00;;;1.70;;
68938;SDS011;59064;45.294;11.816;2022-09-29T10:03:03;4.40;;;2.00;;
68938;SDS011;59064;45.294;11.816;2022-09-29T10:05:39;9.70;;;2.90;;
68938;SDS011;59064;45.294;11.816;2022-09-29T10:08:21;5.50;;;2.30;;
68938;SDS011;59064;45.294;11.816;2022-09-29T10:10:48;6.90;;;2.40;;
68938;SDS011;59064;45.294;11.816;2022-09-29T10:13:13;10.00;;;3.00;;
68938;SDS011;59064;45.294;11.816;2022-09-29T10:18:24;7.70;;;2.50;;
68938;SDS011;59064;45.294;11.816;2022-09-29T10:20:54;7.70;;;2.60;;
68938;SDS011;59064;45.294;11.816;2022-09-29T10:26:15;7.80;;;3.30;;
68938;SDS011;59064;45.294;11.816;2022-09-29T10:34:40;10.70;;;2.90;;
68938;SDS011;59064;45.294;11.816;2022-09-29T10:37:20;10.50;;;3.30;;
68938;SDS011;59064;45.294;11.816;2022-09-29T10:39:48;9.10;;;3.10;;
68938;SDS011;59064;45.294;11.816;2022-09-29T10:42:16;8.50;;;2.70;;
68938;SDS011;59064;45.294;11.816;2022-09-29T10:44:50;7.50;;;2.60;;
68938;SDS011;59064;45.294;11.816;2022-09-29T10:47:26;6.70;;;2.30;;
68938;SDS011;59064;45.294;11.816;2022-09-29T10:50:13;9.60;;;3.00;;
68938;SDS011;59064;45.294;11.816;2022-09-29T10:55:19;5.40;;;2.00;;
68938;SDS011;59064;45.294;11.816;2022-09-29T10:57:48;5.90;;;2.00;;
68938;SDS011;59064;45.294;11.816;2022-09-29T11:02:54;8.00;;;2.40;;
68938;SDS011;59064;45.294;11.816;2022-09-29T11:06:11;7.80;;;2.30;;
68938;SDS011;59064;45.294;11.816;2022-09-29T11:14:30;7.10;;;2.70;;
68938;SDS011;59064;45.294;11.816;2022-09-29T11:17:27;9.00;;;2.80;;
68938;SDS011;59064;45.294;11.816;2022-09-29T11:20:00;7.90;;;2.10;;
68938;SDS011;59064;45.294;11.816;2022-09-29T11:28:24;6.70;;;2.00;;
68938;SDS011;59064;45.294;11.816;2022-09-29T11:34:04;7.60;;;1.90;;
68938;SDS011;59064;45.294;11.816;2022-09-29T11:51:15;5.90;;;1.80;;
68938;SDS011;59064;45.294;11.816;2022-09-29T11:56:57;5.50;;;1.90;;
68938;SDS011;59064;45.294;11.816;2022-09-29T12:14:19;6.80;;;1.80;;
68938;SDS011;59064;45.294;11.816;2022-09-29T12:16:56;5.50;;;1.50;;
68938;SDS011;59064;45.294;11.816;2022-09-29T12:19:31;6.20;;;1.90;;
68938;SDS011;59064;45.294;11.816;2022-09-29T12:22:02;5.00;;;1.40;;
68938;SDS011;59064;45.294;11.816;2022-09-29T12:24:54;7.90;;;1.50;;
68938;SDS011;59064;45.294;11.816;2022-09-29T12:27:38;7.80;;;1.80;;
68938;SDS011;59064;45.294;11.816;2022-09-29T12:30:26;4.40;;;1.80;;
68938;SDS011;59064;45.294;11.816;2022-09-29T12:36:13;5.40;;;1.50;;
68938;SDS011;59064;45.294;11.816;2022-09-29T12:42:24;4.70;;;1.10;;
68938;SDS011;59064;45.294;11.816;2022-09-29T12:45:18;5.00;;;1.00;;
68938;SDS011;59064;45.294;11.816;2022-09-29T12:51:22;4.60;;;1.50;;
68938;SDS011;59064;45.294;11.816;2022-09-29T12:56:36;5.10;;;1.10;;
68938;SDS011;59064;45.294;11.816;2022-09-29T13:08:36;4.80;;;1.20;;
68938;SDS011;59064;45.294;11.816;2022-09-29T13:28:53;5.60;;;1.20;;
68938;SDS011;59064;45.294;11.816;2022-09-29T13:31:25;4.50;;;1.20;;
68938;SDS011;59064;45.294;11.816;2022-09-29T13:33:55;5.30;;;1.10;;
68938;SDS011;59064;45.294;11.816;2022-09-29T13:36:30;5.20;;;1.50;;
68938;SDS011;59064;45.294;11.816;2022-09-29T13:39:02;4.80;;;1.00;;
68938;SDS011;59064;45.294;11.816;2022-09-29T13:41:34;6.20;;;1.70;;
68938;SDS011;59064;45.294;11.816;2022-09-29T13:44:06;3.10;;;1.00;;
68938;SDS011;59064;45.294;11.816;2022-09-29T13:46:46;6.20;;;1.20;;
68938;SDS011;59064;45.294;11.816;2022-09-29T13:49:15;6.30;;;1.60;;
68938;SDS011;59064;45.294;11.816;2022-09-29T13:54:37;4.30;;;1.20;;
68938;SDS011;59064;45.294;11.816;2022-09-29T14:00:10;4.90;;;1.10;;
68938;SDS011;59064;45.294;11.816;2022-09-29T14:03:20;4.50;;;1.30;;
68938;SDS011;59064;45.294;11.816;2022-09-29T14:09:18;4.50;;;1.20;;
68938;SDS011;59064;45.294;11.816;2022-09-29T14:11:50;5.60;;;1.20;;
68938;SDS011;59064;45.294;11.816;2022-09-29T14:14:31;4.30;;;1.40;;
68938;SDS011;59064;45.294;11.816;2022-09-29T14:17:04;4.90;;;1.60;;
68938;SDS011;59064;45.294;11.816;2022-09-29T14:19:50;4.70;;;1.50;;
68938;SDS011;59064;45.294;11.816;2022-09-29T14:27:36;6.00;;;2.40;;
68938;SDS011;59064;45.294;11.816;2022-09-29T14:32:39;4.70;;;2.20;;
68938;SDS011;59064;45.294;11.816;2022-09-29T14:38:26;7.20;;;2.20;;
68938;SDS011;59064;45.294;11.816;2022-09-29T14:43:40;7.50;;;2.60;;
68938;SDS011;59064;45.294;11.816;2022-09-29T15:04:46;10.00;;;2.90;;
68938;SDS011;59064;45.294;11.816;2022-09-29T15:07:15;11.40;;;2.90;;
68938;SDS011;59064;45.294;11.816;2022-09-29T15:09:55;6.20;;;2.30;;
68938;SDS011;59064;45.294;11.816;2022-09-29T15:12:30;7.30;;;2.40;;
68938;SDS011;59064;45.294;11.816;2022-09-29T15:14:57;8.50;;;2.60;;
68938;SDS011;59064;45.294;11.816;2022-09-29T15:28:09;10.50;;;2.70;;
68938;SDS011;59064;45.294;11.816;2022-09-29T15:30:39;7.90;;;2.60;;
68938;SDS011;59064;45.294;11.816;2022-09-29T15:33:20;9.60;;;2.80;;
68938;SDS011;59064;45.294;11.816;2022-09-29T15:38:52;8.90;;;2.70;;
68938;SDS011;59064;45.294;11.816;2022-09-29T15:41:20;11.40;;;4.50;;
68938;SDS011;59064;45.294;11.816;2022-09-29T15:44:14;9.60;;;4.00;;
68938;SDS011;59064;45.294;11.816;2022-09-29T15:46:51;8.80;;;3.90;;
68938;SDS011;59064;45.294;11.816;2022-09-29T15:49:22;9.50;;;2.70;;
68938;SDS011;59064;45.294;11.816;2022-09-29T15:52:01;10.50;;;2.80;;
68938;SDS011;59064;45.294;11.816;2022-09-29T15:54:40;8.40;;;2.50;;
68938;SDS011;59064;45.294;11.816;2022-09-29T16:05:41;8.60;;;2.60;;
68938;SDS011;59064;45.294;11.816;2022-09-29T16:08:22;7.70;;;2.50;;
68938;SDS011;59064;45.294;11.816;2022-09-29T16:10:52;9.20;;;2.90;;
68938;SDS011;59064;45.294;11.816;2022-09-29T16:13:25;7.20;;;2.70;;
68938;SDS011;59064;45.294;11.816;2022-09-29T16:16:01;11.30;;;3.60;;
68938;SDS011;59064;45.294;11.816;2022-09-29T16:18:36;7.30;;;2.70;;
68938;SDS011;59064;45.294;11.816;2022-09-29T16:21:18;6.50;;;2.10;;
68938;SDS011;59064;45.294;11.816;2022-09-29T16:24:09;7.90;;;2.50;;
68938;SDS011;59064;45.294;11.816;2022-09-29T16:26:58;7.00;;;2.70;;
68938;SDS011;59064;45.294;11.816;2022-09-29T16:29:34;9.30;;;2.30;;
68938;SDS011;59064;45.294;11.816;2022-09-29T16:35:36;7.50;;;3.00;;
68938;SDS011;59064;45.294;11.816;2022-09-29T16:38:19;10.00;;;2.60;;
68938;SDS011;59064;45.294;11.816;2022-09-29T16:40:50;8.70;;;3.30;;
68938;SDS011;59064;45.294;11.816;2022-09-29T16:43:20;7.30;;;2.30;;
68938;SDS011;59064;45.294;11.816;2022-09-29T16:45:51;7.00;;;2.40;;
68938;SDS011;59064;45.294;11.816;2022-09-29T16:48:20;4.80;;;1.70;;
68938;SDS011;59064;45.294;11.816;2022-09-29T16:50:48;6.60;;;1.80;;
68938;SDS011;59064;45.294;11.816;2022-09-29T16:55:58;4.80;;;1.80;;
68938;SDS011;59064;45.294;11.816;2022-09-29T16:58:43;5.70;;;2.00;;
68938;SDS011;59064;45.294;11.816;2022-09-29T17:01:10;6.30;;;1.80;;
68938;SDS011;59064;45.294;11.816;2022-09-29T17:03:39;4.60;;;1.40;;
68938;SDS011;59064;45.294;11.816;2022-09-29T17:06:07;4.00;;;1.20;;
68938;SDS011;59064;45.294;11.816;2022-09-29T17:08:33;3.90;;;1.50;;
68938;SDS011;59064;45.294;11.816;2022-09-29T17:10:59;5.80;;;1.60;;
68938;SDS011;59064;45.294;11.816;2022-09-29T17:13:33;7.00;;;1.70;;
68938;SDS011;59064;45.294;11.816;2022-09-29T17:15:59;5.50;;;1.50;;
68938;SDS011;59064;45.294;11.816;2022-09-29T17:18:26;6.50;;;1.90;;
68938;SDS011;59064;45.294;11.816;2022-09-29T17:20:53;4.10;;;1.90;;
68938;SDS011;59064;45.294;11.816;2022-09-29T17:23:19;5.30;;;2.00;;
68938;SDS011;59064;45.294;11.816;2022-09-29T17:25:45;5.70;;;1.90;;
68938;SDS011;59064;45.294;11.816;2022-09-29T17:28:20;6.20;;;2.30;;
68938;SDS011;59064;45.294;11.816;2022-09-29T17:30:49;5.80;;;2.10;;
68938;SDS011;59064;45.294;11.816;2022-09-29T17:33:17;5.50;;;2.30;;
68938;SDS011;59064;45.294;11.816;2022-09-29T17:35:48;7.80;;;2.40;;
68938;SDS011;59064;45.294;11.816;2022-09-29T17:38:17;3.30;;;1.70;;
68938;SDS011;59064;45.294;11.816;2022-09-29T17:43:17;6.40;;;2.30;;
68938;SDS011;59064;45.294;11.816;2022-09-29T17:45:44;7.30;;;2.20;;
68938;SDS011;59064;45.294;11.816;2022-09-29T17:48:11;5.40;;;2.30;;
68938;SDS011;59064;45.294;11.816;2022-09-29T17:50:46;6.80;;;2.90;;
68938;SDS011;59064;45.294;11.816;2022-09-29T17:53:15;8.80;;;3.10;;
68938;SDS011;59064;45.294;11.816;2022-09-29T17:55:45;7.90;;;2.80;;
68938;SDS011;59064;45.294;11.816;2022-09-29T17:58:18;6.80;;;2.60;;
68938;SDS011;59064;45.294;11.816;2022-09-29T18:00:46;7.10;;;3.20;;
68938;SDS011;59064;45.294;11.816;2022-09-29T18:03:15;8.00;;;2.90;;
68938;SDS011;59064;45.294;11.816;2022-09-29T18:05:45;7.80;;;3.10;;
68938;SDS011;59064;45.294;11.816;2022-09-29T18:08:17;6.60;;;2.80;;
68938;SDS011;59064;45.294;11.816;2022-09-29T18:10:50;6.60;;;3.00;;
68938;SDS011;59064;45.294;11.816;2022-09-29T18:13:25;6.30;;;2.80;;
68938;SDS011;59064;45.294;11.816;2022-09-29T18:15:53;4.30;;;2.00;;
68938;SDS011;59064;45.294;11.816;2022-09-29T18:18:21;6.60;;;2.10;;
68938;SDS011;59064;45.294;11.816;2022-09-29T18:20:48;5.20;;;2.20;;
68938;SDS011;59064;45.294;11.816;2022-09-29T18:23:15;4.80;;;2.30;;
68938;SDS011;59064;45.294;11.816;2022-09-29T18:25:44;4.20;;;2.00;;
68938;SDS011;59064;45.294;11.816;2022-09-29T18:28:12;4.10;;;2.00;;
68938;SDS011;59064;45.294;11.816;2022-09-29T18:30:41;4.80;;;2.00;;
68938;SDS011;59064;45.294;11.816;2022-09-29T18:33:13;4.70;;;2.20;;
68938;SDS011;59064;45.294;11.816;2022-09-29T18:35:42;26.80;;;18.60;;
68938;SDS011;59064;45.294;11.816;2022-09-29T18:38:36;5.40;;;2.20;;
68938;SDS011;59064;45.294;11.816;2022-09-29T18:41:14;4.50;;;2.00;;
68938;SDS011;59064;45.294;11.816;2022-09-29T18:43:44;4.40;;;2.10;;
68938;SDS011;59064;45.294;11.816;2022-09-29T18:46:11;5.90;;;1.90;;
68938;SDS011;59064;45.294;11.816;2022-09-29T18:48:38;5.00;;;2.20;;
68938;SDS011;59064;45.294;11.816;2022-09-29T18:51:05;6.30;;;2.20;;
68938;SDS011;59064;45.294;11.816;2022-09-29T18:53:31;5.10;;;2.40;;
68938;SDS011;59064;45.294;11.816;2022-09-29T18:56:02;4.20;;;2.00;;